createdAt,value
2023-02-11T00:01:47.367Z,79.20
2023-02-11T00:04:14.392Z,79.20
2023-02-11T00:06:41.198Z,79.20
2023-02-11T00:09:07.898Z,79.20
2023-02-11T00:11:34.572Z,79.30
2023-02-11T00:14:02.687Z,79.30
2023-02-11T00:16:29.613Z,79.20
2023-02-11T00:18:56.204Z,79.40
2023-02-11T00:21:24.597Z,79.70
2023-02-11T00:23:51.507Z,80.10
2023-02-11T00:26:22.001Z,80.30
2023-02-11T00:28:49.159Z,80.00
2023-02-11T00:31:16.707Z,79.90
2023-02-11T00:33:43.501Z,79.80
2023-02-11T00:36:13.528Z,79.60
2023-02-11T00:38:40.209Z,79.60
2023-02-11T00:41:06.791Z,79.40
2023-02-11T00:43:33.349Z,79.70
2023-02-11T00:45:59.954Z,79.70
2023-02-11T00:48:26.549Z,79.60
2023-02-11T00:50:53.145Z,79.60
2023-02-11T00:53:19.756Z,79.60
2023-02-11T00:55:46.321Z,79.50
2023-02-11T00:58:12.857Z,79.50
2023-02-11T01:00:39.432Z,79.50
2023-02-11T01:03:06.409Z,79.40
2023-02-11T01:05:33.202Z,79.50
2023-02-11T01:07:59.751Z,79.50
2023-02-11T01:10:26.391Z,79.60
2023-02-11T01:12:52.942Z,79.60
2023-02-11T01:15:20.214Z,79.50
2023-02-11T01:17:46.768Z,79.50
2023-02-11T01:20:19.747Z,79.50
2023-02-11T01:22:46.282Z,79.40
2023-02-11T01:25:12.989Z,79.40
2023-02-11T01:27:39.850Z,79.40
2023-02-11T01:30:08.855Z,79.40
2023-02-11T01:32:36.071Z,79.30
2023-02-11T01:35:03.061Z,79.40
2023-02-11T01:37:29.643Z,79.40
2023-02-11T01:39:56.206Z,79.50
2023-02-11T01:42:23.424Z,79.50
2023-02-11T01:44:51.402Z,79.40
2023-02-11T01:47:18.269Z,79.50
2023-02-11T01:49:47.479Z,79.50
2023-02-11T01:52:17.502Z,79.40
2023-02-11T01:55:03.777Z,79.50
2023-02-11T01:57:32.217Z,79.50
2023-02-11T02:00:17.345Z,79.40
2023-02-11T02:02:50.792Z,79.40
2023-02-11T02:05:22.928Z,79.50
2023-02-11T02:07:56.119Z,79.40
2023-02-11T02:10:24.309Z,79.50
2023-02-11T02:12:50.909Z,79.40
2023-02-11T02:15:31.962Z,79.40
2023-02-11T02:18:01.669Z,79.40
2023-02-11T02:20:40.388Z,79.40
2023-02-11T02:23:28.495Z,79.50
2023-02-11T02:26:13.896Z,79.40
2023-02-11T02:28:59.406Z,79.50
2023-02-11T02:31:32.113Z,79.50
2023-02-11T02:34:04.268Z,79.40
2023-02-11T02:36:34.455Z,79.50
2023-02-11T02:39:11.853Z,79.30
2023-02-11T02:41:39.295Z,79.50
2023-02-11T02:44:07.341Z,79.40
2023-02-11T02:46:34.822Z,79.50
2023-02-11T02:49:01.629Z,79.40
2023-02-11T02:51:34.367Z,79.40
2023-02-11T02:54:19.331Z,79.40
2023-02-11T02:56:52.046Z,79.30
2023-02-11T02:59:37.580Z,79.40
2023-02-11T03:02:13.308Z,79.30
2023-02-11T03:04:59.035Z,79.30
2023-02-11T03:07:30.028Z,79.60
2023-02-11T03:10:07.892Z,79.40
2023-02-11T03:12:34.831Z,79.40
2023-02-11T03:15:02.294Z,79.40
2023-02-11T03:17:30.137Z,79.40
2023-02-11T03:19:58.978Z,79.50
2023-02-11T03:22:27.262Z,79.50
2023-02-11T03:24:55.053Z,79.30
2023-02-11T03:27:25.803Z,79.30
2023-02-11T03:29:54.191Z,79.30
2023-02-11T03:32:36.714Z,79.40
2023-02-11T03:35:09.820Z,79.40
2023-02-11T03:37:41.903Z,79.30
2023-02-11T03:40:13.486Z,79.30
2023-02-11T03:43:03.079Z,79.50
2023-02-11T03:45:30.257Z,79.40
2023-02-11T03:48:00.348Z,79.40
2023-02-11T03:50:27.934Z,79.50
2023-02-11T03:52:55.303Z,79.60
2023-02-11T03:55:23.532Z,79.60
2023-02-11T03:57:50.103Z,79.40
2023-02-11T04:00:16.781Z,79.60
2023-02-11T04:02:44.079Z,79.50
2023-02-11T04:05:12.521Z,79.60
2023-02-11T04:07:39.160Z,79.60
2023-02-11T04:10:06.425Z,79.60
2023-02-11T04:12:32.985Z,79.60
2023-02-11T04:14:59.570Z,79.60
2023-02-11T04:17:26.188Z,79.60
2023-02-11T04:19:52.761Z,79.60
2023-02-11T04:22:19.387Z,79.70
2023-02-11T04:24:45.955Z,79.60
2023-02-11T04:27:12.681Z,79.60
2023-02-11T04:29:39.619Z,79.60
2023-02-11T04:32:06.285Z,79.70
2023-02-11T04:34:33.200Z,79.60
2023-02-11T04:36:59.738Z,79.70
2023-02-11T04:39:26.303Z,79.70
2023-02-11T04:41:52.862Z,79.70
2023-02-11T04:44:19.451Z,79.70
2023-02-11T04:46:45.988Z,79.70
2023-02-11T04:49:13.460Z,79.70
2023-02-11T04:51:40.229Z,79.80
2023-02-11T04:54:06.940Z,79.70
2023-02-11T04:56:33.534Z,79.70
2023-02-11T04:59:00.199Z,79.80
2023-02-11T05:01:26.919Z,79.80
2023-02-11T05:03:53.665Z,79.70
2023-02-11T05:06:20.334Z,79.80
2023-02-11T05:08:46.908Z,79.70
2023-02-11T05:11:18.209Z,79.80
2023-02-11T05:13:44.986Z,79.70
2023-02-11T05:16:11.741Z,79.80
2023-02-11T05:18:38.765Z,79.80
2023-02-11T05:21:06.231Z,79.70
2023-02-11T05:23:34.138Z,79.80
2023-02-11T05:26:00.884Z,79.80
2023-02-11T05:28:27.583Z,79.80
2023-02-11T05:30:54.375Z,79.80
2023-02-11T05:33:21.048Z,79.90
2023-02-11T05:35:47.718Z,79.80
2023-02-11T05:38:14.362Z,79.80
2023-02-11T05:40:41.095Z,79.90
2023-02-11T05:43:07.656Z,79.80
2023-02-11T05:45:34.381Z,79.90
2023-02-11T05:48:01.034Z,79.80
2023-02-11T05:50:27.594Z,79.90
2023-02-11T05:52:54.147Z,79.90
2023-02-11T05:55:21.155Z,79.90
2023-02-11T05:57:47.745Z,79.80
2023-02-11T06:00:14.696Z,79.80
2023-02-11T06:02:41.283Z,79.80
2023-02-11T06:05:08.412Z,79.90
2023-02-11T06:07:34.954Z,79.90
2023-02-11T06:10:01.504Z,79.80
2023-02-11T06:12:28.085Z,79.90
2023-02-11T06:14:54.679Z,79.90
2023-02-11T06:17:21.296Z,79.80
2023-02-11T06:19:47.912Z,79.90
2023-02-11T06:22:14.467Z,79.90
2023-02-11T06:24:59.899Z,79.90
2023-02-11T06:27:27.236Z,79.90
2023-02-11T06:29:53.853Z,79.90
2023-02-11T06:32:42.317Z,80.00
2023-02-11T06:35:09.422Z,79.90
2023-02-11T06:37:37.277Z,80.90
2023-02-11T06:40:03.952Z,80.70
2023-02-11T06:42:30.523Z,80.70
2023-02-11T06:44:57.069Z,80.60
2023-02-11T06:51:27.290Z,80.40
2023-02-11T06:53:54.481Z,80.40
2023-02-11T06:56:22.508Z,80.30
2023-02-11T06:58:51.908Z,80.40
2023-02-11T07:01:18.443Z,80.20
2023-02-11T07:03:46.021Z,80.10
2023-02-11T07:06:14.092Z,80.20
2023-02-11T07:08:42.383Z,80.70
2023-02-11T07:11:10.713Z,80.40
2023-02-11T07:13:37.470Z,80.00
2023-02-11T07:16:08.090Z,80.10
2023-02-11T07:18:35.102Z,80.50
2023-02-11T07:21:08.960Z,80.60
2023-02-11T07:23:36.020Z,80.50
2023-02-11T07:26:06.887Z,80.50
2023-02-11T07:28:34.440Z,80.40
2023-02-11T07:31:21.488Z,80.40
2023-02-11T07:33:48.506Z,80.30
2023-02-11T07:36:16.050Z,80.20
2023-02-11T07:38:42.961Z,80.10
2023-02-11T07:41:14.471Z,80.10
2023-02-11T07:43:41.469Z,80.10
2023-02-11T07:46:09.544Z,80.40
2023-02-11T07:48:36.388Z,80.40
2023-02-11T07:51:23.226Z,80.50
2023-02-11T07:54:08.379Z,80.60
2023-02-11T07:56:53.433Z,80.50
2023-02-11T07:59:38.443Z,80.30
2023-02-11T08:02:23.556Z,80.50
2023-02-11T08:05:08.562Z,80.50
2023-02-11T08:07:54.311Z,80.70
2023-02-11T08:10:39.841Z,79.80
2023-02-11T08:13:06.382Z,79.70
2023-02-11T08:15:32.994Z,79.70
2023-02-11T08:17:59.551Z,80.10
2023-02-11T08:20:26.148Z,80.30
2023-02-11T08:22:52.809Z,80.10
2023-02-11T08:25:19.369Z,80.00
2023-02-11T08:27:45.983Z,80.00
2023-02-11T08:30:12.922Z,80.00
2023-02-11T08:32:39.579Z,80.00
2023-02-11T08:35:07.975Z,80.00
2023-02-11T08:37:34.689Z,80.40
2023-02-11T08:40:01.271Z,81.20
2023-02-11T08:42:27.825Z,81.40
2023-02-11T08:44:54.373Z,81.50
2023-02-11T08:47:20.933Z,81.30
2023-02-11T08:49:47.487Z,81.10
2023-02-11T08:52:14.216Z,81.20
2023-02-11T08:54:40.851Z,81.20
2023-02-11T08:57:07.476Z,81.20
2023-02-11T08:59:34.529Z,81.20
2023-02-11T09:02:01.108Z,81.10
2023-02-11T09:04:27.679Z,81.10
2023-02-11T09:06:54.273Z,81.20
2023-02-11T09:09:20.974Z,81.10
2023-02-11T09:11:48.116Z,81.00
2023-02-11T09:14:19.562Z,80.70
2023-02-11T09:16:46.342Z,80.60
2023-02-11T09:19:12.996Z,80.70
2023-02-11T09:21:39.821Z,80.70
2023-02-11T09:24:06.620Z,80.80
2023-02-11T09:26:34.444Z,80.60
2023-02-11T09:29:01.255Z,80.60
2023-02-11T09:31:28.922Z,80.50
2023-02-11T09:33:58.306Z,80.40
2023-02-11T09:36:26.342Z,80.50
2023-02-11T09:38:53.341Z,80.40
2023-02-11T09:41:35.444Z,80.50
2023-02-11T09:44:04.862Z,80.50
2023-02-11T09:46:32.702Z,80.30
2023-02-11T09:48:59.833Z,80.40
2023-02-11T09:51:40.742Z,80.30
2023-02-11T09:54:15.364Z,80.40
2023-02-11T09:56:41.921Z,80.40
2023-02-11T09:59:10.938Z,80.30
2023-02-11T10:01:43.612Z,80.50
2023-02-11T10:04:18.096Z,80.30
2023-02-11T10:06:44.618Z,80.40
2023-02-11T10:09:35.500Z,80.30
2023-02-11T10:12:17.078Z,80.30
2023-02-11T10:15:06.859Z,80.30
2023-02-11T10:17:33.362Z,80.40
2023-02-11T10:20:20.179Z,80.40
2023-02-11T10:22:46.781Z,80.40
2023-02-11T10:25:22.480Z,80.30
2023-02-11T10:27:49.572Z,80.30
2023-02-11T10:30:23.182Z,80.20
2023-02-11T10:33:09.972Z,80.10
2023-02-11T10:35:37.696Z,80.40
2023-02-11T10:38:04.246Z,81.20
2023-02-11T10:40:31.508Z,81.00
2023-02-11T10:43:03.753Z,80.70
2023-02-11T10:45:34.828Z,80.50
2023-02-11T10:48:03.260Z,80.40
2023-02-11T10:50:32.472Z,80.40
2023-02-11T10:53:11.289Z,80.50
2023-02-11T10:55:37.918Z,80.50
2023-02-11T10:58:04.677Z,80.50
2023-02-11T11:00:40.807Z,80.30
2023-02-11T11:03:17.046Z,80.10
2023-02-11T11:05:48.792Z,80.00
2023-02-11T11:08:15.597Z,79.80
2023-02-11T11:10:45.035Z,80.10
2023-02-11T11:13:34.534Z,79.90
2023-02-11T11:16:07.314Z,79.80
2023-02-11T11:18:33.893Z,80.10
2023-02-11T11:21:02.157Z,79.90
2023-02-11T11:23:31.973Z,79.80
2023-02-11T11:26:09.179Z,79.70
2023-02-11T11:28:54.386Z,79.70
2023-02-11T11:31:24.127Z,79.50
2023-02-11T11:33:51.766Z,79.50
2023-02-11T11:36:22.653Z,79.40
2023-02-11T11:38:52.294Z,79.40
2023-02-11T11:41:26.446Z,79.40
2023-02-11T11:43:59.174Z,79.40
2023-02-11T11:46:27.876Z,79.40
2023-02-11T11:48:56.773Z,79.40
2023-02-11T11:51:23.869Z,79.40
2023-02-11T11:54:03.992Z,79.40
2023-02-11T11:56:33.598Z,79.40
2023-02-11T11:59:01.810Z,79.50
2023-02-11T12:01:47.127Z,79.40
2023-02-11T12:04:14.085Z,79.30
2023-02-11T12:06:59.398Z,79.30
2023-02-11T12:09:28.841Z,79.30
2023-02-11T12:12:05.821Z,79.30
2023-02-11T12:14:51.774Z,79.30
2023-02-11T12:17:37.460Z,79.30
2023-02-11T12:20:20.635Z,79.30
2023-02-11T12:23:06.975Z,79.20
2023-02-11T12:25:36.042Z,79.20
2023-02-11T12:28:06.887Z,79.20
2023-02-11T12:30:53.403Z,79.20
2023-02-11T12:33:21.135Z,79.20
2023-02-11T12:35:48.791Z,79.20
2023-02-11T12:38:22.921Z,79.10
2023-02-11T12:41:00.852Z,79.00
2023-02-11T12:43:34.608Z,79.10
2023-02-11T12:46:17.476Z,79.20
2023-02-11T12:48:59.949Z,79.20
2023-02-11T12:51:33.751Z,79.20
2023-02-11T12:54:01.098Z,79.20
2023-02-11T12:56:31.619Z,79.20
2023-02-11T12:59:01.146Z,79.10
2023-02-11T13:01:31.358Z,79.20
2023-02-11T13:04:01.713Z,79.10
2023-02-11T13:06:49.398Z,79.10
2023-02-11T13:09:23.187Z,79.10
2023-02-11T13:11:54.082Z,79.20
2023-02-11T13:14:24.026Z,79.20
2023-02-11T13:16:51.872Z,79.20
2023-02-11T13:19:24.939Z,79.20
2023-02-11T13:22:00.668Z,79.80
2023-02-11T13:24:47.212Z,79.60
2023-02-11T13:27:32.522Z,79.80
2023-02-11T13:30:21.475Z,79.60
2023-02-11T13:32:54.163Z,79.40
2023-02-11T13:35:28.259Z,79.40
2023-02-11T13:37:55.551Z,79.30
2023-02-11T13:40:23.615Z,79.40
2023-02-11T13:42:54.367Z,79.40
2023-02-11T13:45:24.007Z,79.50
2023-02-11T13:47:56.095Z,79.40
2023-02-11T13:50:23.932Z,79.40
2023-02-11T13:52:57.286Z,79.40
2023-02-11T13:55:24.435Z,79.30
2023-02-11T13:58:06.412Z,79.30
2023-02-11T14:00:39.402Z,79.20
2023-02-11T14:03:31.346Z,79.30
2023-02-11T14:06:36.324Z,79.30
2023-02-11T14:09:28.871Z,79.30
2023-02-11T14:12:14.291Z,79.30
2023-02-11T14:15:02.354Z,79.20
2023-02-11T14:17:31.412Z,79.20
2023-02-11T14:19:58.815Z,79.30
2023-02-11T14:22:27.601Z,79.20
2023-02-11T14:24:54.193Z,79.20
2023-02-11T14:27:25.104Z,79.10
2023-02-11T14:30:10.283Z,79.10
2023-02-11T14:32:55.846Z,79.00
2023-02-11T14:35:22.394Z,79.00
2023-02-11T14:38:12.253Z,79.00
2023-02-11T14:40:55.032Z,79.00
2023-02-11T14:43:28.477Z,79.00
2023-02-11T14:45:56.778Z,78.90
2023-02-11T14:48:29.385Z,78.80
2023-02-11T14:51:01.541Z,79.00
2023-02-11T14:53:29.971Z,79.20
2023-02-11T14:55:56.518Z,79.20
2023-02-11T14:58:24.280Z,79.20
2023-02-11T15:00:51.089Z,79.40
2023-02-11T15:03:29.769Z,79.60
2023-02-11T15:05:58.069Z,79.60
2023-02-11T15:08:25.000Z,79.70
2023-02-11T15:10:53.871Z,79.90
2023-02-11T15:13:22.099Z,79.90
2023-02-11T15:15:51.378Z,80.00
2023-02-11T15:18:22.425Z,80.00
2023-02-11T15:20:49.814Z,80.10
2023-02-11T15:23:21.556Z,80.20
2023-02-11T15:25:53.267Z,80.20
2023-02-11T15:28:22.715Z,80.30
2023-02-11T15:30:56.493Z,80.40
2023-02-11T15:33:25.301Z,80.40
2023-02-11T15:35:52.045Z,80.40
2023-02-11T15:38:18.627Z,80.40
2023-02-11T15:40:56.381Z,80.40
2023-02-11T15:43:23.178Z,80.40
2023-02-11T15:45:54.962Z,80.60
2023-02-11T15:48:27.985Z,80.70
2023-02-11T15:50:56.005Z,80.60
2023-02-11T15:53:25.491Z,80.60
2023-02-11T15:55:53.922Z,80.60
2023-02-11T15:58:21.714Z,80.60
2023-02-11T16:00:50.357Z,80.70
2023-02-11T16:03:20.608Z,80.60
2023-02-11T16:05:47.187Z,80.60
2023-02-11T16:08:29.227Z,80.60
2023-02-11T16:10:58.274Z,80.60
2023-02-11T16:13:25.895Z,80.90
2023-02-11T16:15:54.176Z,80.90
2023-02-11T16:18:37.334Z,80.90
2023-02-11T16:21:05.606Z,80.90
2023-02-11T16:23:34.401Z,80.90
2023-02-11T16:26:21.019Z,80.90
2023-02-11T16:28:47.877Z,81.30
2023-02-11T16:31:14.606Z,81.60
2023-02-11T16:33:41.208Z,81.50
2023-02-11T16:36:12.302Z,81.40
2023-02-11T16:38:38.878Z,81.40
2023-02-11T16:41:05.519Z,81.30
2023-02-11T16:43:32.189Z,81.30
2023-02-11T16:45:58.807Z,81.40
2023-02-11T16:48:25.354Z,81.40
2023-02-11T16:50:53.567Z,81.40
2023-02-11T16:53:24.029Z,81.40
2023-02-11T16:55:51.755Z,81.40
2023-02-11T16:58:18.629Z,81.40
2023-02-11T17:00:47.446Z,81.40
2023-02-11T17:03:19.708Z,81.40
2023-02-11T17:05:58.065Z,81.40
2023-02-11T17:08:24.851Z,81.40
2023-02-11T17:10:51.770Z,81.40
2023-02-11T17:13:18.641Z,81.40
2023-02-11T17:15:45.197Z,81.40
2023-02-11T17:18:13.592Z,81.40
2023-02-11T17:20:40.410Z,81.40
2023-02-11T17:23:07.179Z,81.40
2023-02-11T17:25:33.881Z,81.40
2023-02-11T17:28:00.448Z,81.40
2023-02-11T17:30:26.990Z,81.30
2023-02-11T17:32:53.590Z,81.50
2023-02-11T17:35:20.202Z,81.40
2023-02-11T17:37:46.758Z,81.60
2023-02-11T17:40:13.754Z,81.40
2023-02-11T17:42:40.297Z,81.50
2023-02-11T17:45:07.242Z,81.40
2023-02-11T17:47:33.813Z,81.40
2023-02-11T17:50:01.013Z,81.60
2023-02-11T17:52:28.128Z,81.60
2023-02-11T17:54:55.320Z,81.50
2023-02-11T17:57:21.983Z,81.50
2023-02-11T17:59:48.559Z,81.50
2023-02-11T18:02:15.403Z,81.50
2023-02-11T18:04:42.106Z,81.50
2023-02-11T18:07:08.756Z,81.40
2023-02-11T18:09:38.660Z,81.40
2023-02-11T18:12:05.515Z,81.50
2023-02-11T18:14:32.274Z,81.40
2023-02-11T18:16:58.897Z,81.40
2023-02-11T18:19:25.590Z,81.50
2023-02-11T18:21:52.168Z,81.50
2023-02-11T18:24:18.731Z,81.40
2023-02-11T18:26:45.323Z,81.50
2023-02-11T18:29:11.896Z,81.40
2023-02-11T18:31:39.313Z,81.40
2023-02-11T18:34:07.377Z,81.50
2023-02-11T18:36:34.076Z,81.60
2023-02-11T18:39:00.651Z,81.80
2023-02-11T18:41:27.879Z,81.60
2023-02-11T18:43:56.969Z,81.60
2023-02-11T18:46:24.606Z,81.50
2023-02-11T18:48:55.846Z,81.60
2023-02-11T18:51:23.194Z,81.40
2023-02-11T18:53:50.632Z,81.40
2023-02-11T18:56:19.271Z,81.40
2023-02-11T18:58:46.183Z,81.60
2023-02-11T19:01:14.222Z,81.50
2023-02-11T19:03:40.855Z,81.60
2023-02-11T19:06:07.711Z,81.50
2023-02-11T19:08:34.301Z,81.60
2023-02-11T19:11:01.130Z,81.60
2023-02-11T19:13:28.318Z,81.60
2023-02-11T19:15:54.866Z,81.60
2023-02-11T19:18:21.429Z,81.70
2023-02-11T19:20:47.989Z,81.60
2023-02-11T19:23:14.560Z,81.70
2023-02-11T19:25:47.899Z,81.40
2023-02-11T19:28:14.520Z,81.60
2023-02-11T19:30:41.345Z,81.50
2023-02-11T19:33:10.132Z,81.90
2023-02-11T19:35:36.911Z,82.00
2023-02-11T19:38:03.967Z,82.20
2023-02-11T19:40:31.282Z,82.00
2023-02-11T19:42:57.880Z,81.90
2023-02-11T19:45:24.452Z,81.90
2023-02-11T19:47:54.609Z,81.90
2023-02-11T19:50:21.181Z,81.80
2023-02-11T19:52:47.741Z,81.80
2023-02-11T19:55:14.695Z,81.70
2023-02-11T19:57:41.275Z,81.70
2023-02-11T20:00:08.109Z,81.80
2023-02-11T20:02:37.019Z,81.80
2023-02-11T20:05:03.921Z,81.60
2023-02-11T20:07:30.808Z,81.60
2023-02-11T20:09:57.486Z,81.80
2023-02-11T20:12:24.078Z,81.70
2023-02-11T20:14:50.631Z,81.70
2023-02-11T20:17:17.162Z,81.70
2023-02-11T20:19:43.737Z,81.70
2023-02-11T20:22:10.322Z,81.80
2023-02-11T20:24:36.854Z,81.80
2023-02-11T20:27:03.656Z,81.80
2023-02-11T20:29:31.711Z,81.70
2023-02-11T20:31:59.112Z,81.80
2023-02-11T20:34:25.881Z,81.70
2023-02-11T20:36:53.621Z,81.80
2023-02-11T20:39:22.681Z,81.80
2023-02-11T20:41:50.042Z,81.80
2023-02-11T20:44:16.677Z,81.90
2023-02-11T20:46:46.435Z,81.80
2023-02-11T20:49:14.915Z,81.70
2023-02-11T20:51:41.505Z,81.70
2023-02-11T20:54:11.319Z,81.80
2023-02-11T20:56:38.919Z,81.90
2023-02-11T20:59:06.206Z,81.80
2023-02-11T21:01:38.274Z,81.80
2023-02-11T21:04:06.383Z,81.80
2023-02-11T21:06:35.321Z,81.80
2023-02-11T21:09:03.413Z,81.80
2023-02-11T21:11:31.094Z,81.80
2023-02-11T21:13:58.486Z,81.80
2023-02-11T21:16:25.548Z,81.90
2023-02-11T21:18:52.366Z,81.80
2023-02-11T21:21:19.340Z,81.80
2023-02-11T21:23:46.320Z,81.80
2023-02-11T21:26:13.284Z,81.80
2023-02-11T21:28:41.235Z,81.80
2023-02-11T21:31:08.281Z,81.90
2023-02-11T21:33:34.976Z,81.80
2023-02-11T21:36:02.746Z,81.90
2023-02-11T21:38:29.778Z,81.90
2023-02-11T21:40:56.417Z,81.90
2023-02-11T21:43:23.362Z,81.80
2023-02-11T21:45:51.178Z,81.90
2023-02-11T21:48:17.829Z,81.80
2023-02-11T21:50:45.520Z,81.80
2023-02-11T21:53:12.929Z,81.90
2023-02-11T21:55:40.068Z,82.10
2023-02-11T21:58:07.223Z,81.80
2023-02-11T22:00:34.302Z,81.90
2023-02-11T22:03:01.138Z,81.90
2023-02-11T22:05:27.803Z,82.00
2023-02-11T22:07:54.374Z,82.70
2023-02-11T22:10:20.940Z,82.50
2023-02-11T22:12:47.482Z,82.30
2023-02-11T22:15:14.078Z,82.20
2023-02-11T22:17:40.668Z,82.10
2023-02-11T22:20:07.482Z,82.00
2023-02-11T22:22:34.580Z,82.00
2023-02-11T22:25:02.030Z,82.00
2023-02-11T22:27:28.619Z,82.10
2023-02-11T22:29:55.159Z,81.90
2023-02-11T22:32:21.696Z,82.00
2023-02-11T22:34:48.249Z,82.00
2023-02-11T22:37:15.028Z,82.00
2023-02-11T22:39:42.584Z,82.00
2023-02-11T22:42:09.498Z,82.00
2023-02-11T22:44:36.965Z,81.90
2023-02-11T22:47:03.655Z,82.00
2023-02-11T22:49:32.420Z,81.90
2023-02-11T22:51:59.367Z,82.00
2023-02-11T22:54:25.976Z,82.00
2023-02-11T22:56:53.220Z,82.00
2023-02-11T22:59:20.190Z,82.10
2023-02-11T23:04:26.910Z,82.00
2023-02-11T23:06:53.539Z,82.10
2023-02-11T23:09:20.233Z,82.00
2023-02-11T23:11:49.316Z,82.00
2023-02-11T23:14:16.268Z,82.10
2023-02-11T23:16:42.979Z,82.10
2023-02-11T23:19:10.868Z,82.20
2023-02-11T23:21:38.440Z,82.20
2023-02-11T23:24:06.762Z,82.20
2023-02-11T23:26:33.515Z,82.20
2023-02-11T23:29:00.383Z,82.20
2023-02-11T23:31:33.876Z,82.10
2023-02-11T23:34:01.248Z,82.30
2023-02-11T23:36:28.692Z,82.20
2023-02-11T23:38:55.323Z,82.20
2023-02-11T23:41:22.057Z,82.20
2023-02-11T23:43:50.238Z,82.20
2023-02-11T23:46:16.925Z,82.30
2023-02-11T23:48:43.502Z,82.50
2023-02-11T23:51:10.250Z,82.50
2023-02-11T23:53:37.488Z,82.60
2023-02-11T23:56:11.298Z,82.60
2023-02-11T23:58:37.850Z,82.60
